createdAt,value
2023-03-19T00:02:06.065Z,100276.22
2023-03-19T00:04:38.806Z,100275.31
2023-03-19T00:07:05.412Z,100279.72
2023-03-19T00:09:31.955Z,100280.63
2023-03-19T00:11:58.396Z,100273.53
2023-03-19T00:14:24.873Z,100265.59
2023-03-19T00:16:54.200Z,100261.16
2023-03-19T00:19:20.732Z,100257.66
2023-03-19T00:21:47.364Z,100257.63
2023-03-19T00:24:14.012Z,100250.56
2023-03-19T00:26:40.668Z,100250.56
2023-03-19T00:29:07.360Z,100253.22
2023-03-19T00:31:34.586Z,100255.84
2023-03-19T00:34:01.664Z,100265.59
2023-03-19T00:36:28.905Z,100261.19
2023-03-19T00:38:57.614Z,100258.53
2023-03-19T00:41:24.721Z,100254.09
2023-03-19T00:43:55.938Z,100246.16
2023-03-19T00:46:23.961Z,100237.31
2023-03-19T00:48:53.810Z,100236.44
2023-03-19T00:51:20.564Z,100238.22
2023-03-19T00:53:47.026Z,100240.00
2023-03-19T00:56:15.392Z,100243.53
2023-03-19T00:58:43.309Z,100232.94
2023-03-19T01:01:12.524Z,100231.19
2023-03-19T01:03:39.081Z,100232.03
2023-03-19T01:06:06.113Z,100234.66
2023-03-19T01:08:32.595Z,100235.50
2023-03-19T01:11:25.293Z,100232.81
2023-03-19T01:13:51.964Z,100226.63
2023-03-19T01:16:18.866Z,100220.41
2023-03-19T01:18:45.945Z,100230.09
2023-03-19T01:21:12.556Z,100223.00
2023-03-19T01:23:45.538Z,100220.31
2023-03-19T01:26:13.265Z,100216.78
2023-03-19T01:28:39.741Z,100210.53
2023-03-19T01:31:08.301Z,100221.97
2023-03-19T01:33:50.800Z,100218.41
2023-03-19T01:36:26.238Z,100216.56
2023-03-19T01:39:00.953Z,100221.84
2023-03-19T01:41:27.813Z,100224.44
2023-03-19T01:43:58.844Z,100223.56
2023-03-19T01:46:37.579Z,100217.34
2023-03-19T01:49:15.152Z,100220.00
2023-03-19T01:51:47.727Z,100214.66
2023-03-19T01:54:46.750Z,100214.63
2023-03-19T01:57:36.579Z,100210.25
2023-03-19T02:00:26.200Z,100207.53
2023-03-19T02:02:59.877Z,100211.03
2023-03-19T02:05:53.067Z,100210.13
2023-03-19T02:08:23.541Z,100206.56
2023-03-19T02:10:51.958Z,100198.63
2023-03-19T02:13:18.648Z,100207.41
2023-03-19T02:15:45.613Z,100209.13
2023-03-19T02:18:12.836Z,100206.44
2023-03-19T02:20:42.055Z,100207.34
2023-03-19T02:23:22.281Z,100216.16
2023-03-19T02:26:11.561Z,100212.69
2023-03-19T02:28:42.526Z,100213.59
2023-03-19T02:31:11.293Z,100218.03
2023-03-19T02:33:38.351Z,100224.25
2023-03-19T02:36:09.157Z,100221.63
2023-03-19T02:38:36.714Z,100222.56
2023-03-19T02:41:08.330Z,100217.28
2023-03-19T02:43:38.408Z,100222.63
2023-03-19T02:46:09.727Z,100222.69
2023-03-19T02:48:37.475Z,100228.88
2023-03-19T02:51:04.833Z,100234.19
2023-03-19T02:53:31.375Z,100229.75
2023-03-19T02:55:57.968Z,100236.75
2023-03-19T02:58:24.461Z,100226.13
2023-03-19T03:00:52.642Z,100226.91
2023-03-19T03:03:20.718Z,100233.91
2023-03-19T03:05:47.291Z,100225.06
2023-03-19T03:08:13.776Z,100228.53
2023-03-19T03:10:40.294Z,100237.31
2023-03-19T03:13:07.145Z,100236.38
2023-03-19T03:15:34.521Z,100232.81
2023-03-19T03:18:01.351Z,100231.03
2023-03-19T03:20:27.769Z,100230.13
2023-03-19T03:22:54.267Z,100245.97
2023-03-19T03:25:21.430Z,100241.59
2023-03-19T03:27:48.233Z,100240.72
2023-03-19T03:30:16.240Z,100246.06
2023-03-19T03:32:43.252Z,100245.25
2023-03-19T03:35:10.397Z,100242.66
2023-03-19T03:37:37.996Z,100252.41
2023-03-19T03:40:08.293Z,100241.00
2023-03-19T03:42:37.180Z,100248.94
2023-03-19T03:45:05.852Z,100248.09
2023-03-19T03:47:32.376Z,100249.00
2023-03-19T03:49:59.098Z,100251.66
2023-03-19T03:52:25.792Z,100247.25
2023-03-19T03:54:52.235Z,100241.94
2023-03-19T03:57:18.757Z,100246.28
2023-03-19T03:59:45.326Z,100248.88
2023-03-19T04:02:12.053Z,100250.53
2023-03-19T04:04:38.690Z,100247.84
2023-03-19T04:07:05.264Z,100259.22
2023-03-19T04:09:38.968Z,100258.25
2023-03-19T04:12:05.696Z,100259.97
2023-03-19T04:14:32.298Z,100266.97
2023-03-19T04:16:59.136Z,100266.06
2023-03-19T04:19:25.857Z,100259.88
2023-03-19T04:21:52.504Z,100267.78
2023-03-19T04:24:19.038Z,100258.94
2023-03-19T04:26:48.459Z,100266.81
2023-03-19T04:29:15.950Z,100263.25
2023-03-19T04:31:42.694Z,100264.06
2023-03-19T04:34:09.236Z,100256.97
2023-03-19T04:36:35.765Z,100260.47
2023-03-19T04:39:02.457Z,100256.00
2023-03-19T04:41:29.767Z,100255.09
2023-03-19T04:44:19.502Z,100255.09
2023-03-19T04:46:47.242Z,100255.94
2023-03-19T04:49:18.145Z,100254.22
2023-03-19T04:51:45.419Z,100250.75
2023-03-19T04:54:12.506Z,100256.03
2023-03-19T04:56:39.058Z,100254.31
2023-03-19T04:59:06.623Z,100257.84
2023-03-19T05:01:33.220Z,100261.41
2023-03-19T05:04:07.163Z,100264.88
2023-03-19T05:06:36.368Z,100274.59
2023-03-19T05:09:03.956Z,100260.50
2023-03-19T05:11:31.556Z,100259.66
2023-03-19T05:14:15.924Z,100263.22
2023-03-19T05:16:58.110Z,100256.22
2023-03-19T05:19:27.230Z,100257.13
2023-03-19T05:21:54.468Z,100254.50
2023-03-19T05:24:25.407Z,100261.53
2023-03-19T05:26:53.223Z,100264.19
2023-03-19T05:29:41.082Z,100268.63
2023-03-19T05:32:19.015Z,100272.09
2023-03-19T05:34:46.178Z,100271.25
2023-03-19T05:37:13.039Z,100273.88
2023-03-19T05:39:40.773Z,100268.53
2023-03-19T05:42:09.053Z,100279.09
2023-03-19T05:44:35.716Z,100279.97
2023-03-19T05:47:13.693Z,100284.38
2023-03-19T05:49:45.467Z,100284.38
2023-03-19T05:52:12.344Z,100281.72
2023-03-19T05:54:38.905Z,100285.22
2023-03-19T05:57:23.336Z,100287.81
2023-03-19T06:00:17.192Z,100290.44
2023-03-19T06:02:47.421Z,100286.00
2023-03-19T06:05:17.209Z,100281.59
2023-03-19T06:07:43.965Z,100280.72
2023-03-19T06:10:18.764Z,100284.28
2023-03-19T06:12:47.673Z,100281.66
2023-03-19T06:15:37.921Z,100287.84
2023-03-19T06:18:27.439Z,100287.91
2023-03-19T06:20:54.491Z,100284.44
2023-03-19T06:23:20.989Z,100291.47
2023-03-19T06:25:47.576Z,100291.47
2023-03-19T06:28:14.938Z,100293.22
2023-03-19T06:30:43.735Z,100302.88
2023-03-19T06:33:32.263Z,100305.50
2023-03-19T06:35:59.572Z,100309.03
2023-03-19T06:38:26.763Z,100306.34
2023-03-19T06:40:53.202Z,100316.94
2023-03-19T06:43:19.678Z,100318.72
2023-03-19T06:45:47.139Z,100316.13
2023-03-19T06:48:13.693Z,100321.44
2023-03-19T06:50:40.398Z,100322.41
2023-03-19T06:53:07.877Z,100321.66
2023-03-19T06:55:35.501Z,100318.25
2023-03-19T06:58:01.937Z,100320.16
2023-03-19T07:00:28.626Z,100321.13
2023-03-19T07:02:55.243Z,100315.94
2023-03-19T07:05:21.714Z,100316.88
2023-03-19T07:07:48.208Z,100309.09
2023-03-19T07:10:14.834Z,100310.13
2023-03-19T07:12:41.347Z,100317.34
2023-03-19T07:15:08.555Z,100318.38
2023-03-19T07:17:35.019Z,100324.63
2023-03-19T07:20:05.030Z,100332.66
2023-03-19T07:22:33.720Z,100328.31
2023-03-19T07:25:01.750Z,100328.41
2023-03-19T07:27:28.330Z,100333.72
2023-03-19T07:29:55.655Z,100344.34
2023-03-19T07:32:23.469Z,100347.94
2023-03-19T07:34:50.237Z,100353.25
2023-03-19T07:37:16.739Z,100355.91
2023-03-19T07:39:43.194Z,100363.03
2023-03-19T07:42:09.822Z,100368.34
2023-03-19T07:44:39.094Z,100373.66
2023-03-19T07:47:08.193Z,100368.34
2023-03-19T07:49:39.874Z,100361.28
2023-03-19T07:52:06.676Z,100368.38
2023-03-19T07:54:33.254Z,100375.44
2023-03-19T07:56:59.745Z,100369.25
2023-03-19T07:59:26.236Z,100371.00
2023-03-19T08:01:52.753Z,100377.19
2023-03-19T08:04:19.257Z,100378.97
2023-03-19T08:06:45.687Z,100388.72
2023-03-19T08:09:12.099Z,100390.50
2023-03-19T08:11:38.604Z,100392.22
2023-03-19T08:14:05.063Z,100399.31
2023-03-19T08:16:32.020Z,100404.63
2023-03-19T08:18:58.463Z,100402.84
2023-03-19T08:21:24.905Z,100405.50
2023-03-19T08:23:53.018Z,100409.94
2023-03-19T08:26:19.687Z,100424.97
2023-03-19T08:28:46.153Z,100424.09
2023-03-19T08:31:14.418Z,100412.59
2023-03-19T08:33:41.550Z,100423.22
2023-03-19T08:36:11.073Z,100431.22
2023-03-19T08:38:37.957Z,100425.03
2023-03-19T08:41:06.146Z,100431.22
2023-03-19T08:43:34.253Z,100431.19
2023-03-19T08:46:01.491Z,100444.50
2023-03-19T08:48:28.334Z,100437.41
2023-03-19T08:50:56.519Z,100443.63
2023-03-19T08:53:24.102Z,100445.41
2023-03-19T08:55:55.079Z,100446.28
2023-03-19T08:58:21.777Z,100448.03
2023-03-19T09:00:50.152Z,100448.00
2023-03-19T09:03:17.418Z,100458.63
2023-03-19T09:05:44.188Z,100454.19
2023-03-19T09:08:11.145Z,100451.53
2023-03-19T09:10:38.200Z,100453.28
2023-03-19T09:13:05.594Z,100447.97
2023-03-19T09:15:32.444Z,100444.44
2023-03-19T09:17:59.199Z,100440.97
2023-03-19T09:20:25.643Z,100439.19
2023-03-19T09:22:52.078Z,100434.78
2023-03-19T09:25:18.606Z,100426.78
2023-03-19T09:27:45.314Z,100424.09
2023-03-19T09:30:12.365Z,100417.91
2023-03-19T09:32:40.684Z,100418.78
2023-03-19T09:35:07.834Z,100417.00
2023-03-19T09:37:34.290Z,100413.47
2023-03-19T09:40:00.977Z,100422.34
2023-03-19T09:42:56.023Z,100412.56
2023-03-19T09:45:23.300Z,100414.38
2023-03-19T09:47:56.189Z,100401.97
2023-03-19T09:50:25.740Z,100406.38
2023-03-19T09:53:24.006Z,100395.72
2023-03-19T09:55:52.432Z,100397.50
2023-03-19T09:58:22.537Z,100408.09
2023-03-19T10:00:51.296Z,100399.22
2023-03-19T10:03:31.677Z,100408.06
2023-03-19T10:06:20.415Z,100394.75
2023-03-19T10:09:03.136Z,100393.88
2023-03-19T10:11:57.699Z,100392.97
2023-03-19T10:14:27.200Z,100390.28
2023-03-19T10:16:58.155Z,100381.38
2023-03-19T10:19:41.138Z,100395.56
2023-03-19T10:22:15.775Z,100392.00
2023-03-19T10:24:45.038Z,100384.88
2023-03-19T10:27:19.991Z,100391.97
2023-03-19T10:29:46.506Z,100390.16
2023-03-19T10:32:38.016Z,100392.81
2023-03-19T10:35:20.777Z,100391.88
2023-03-19T10:37:49.998Z,100398.94
2023-03-19T10:40:30.342Z,100395.38
2023-03-19T10:43:20.952Z,100395.31
2023-03-19T10:45:49.089Z,100389.91
2023-03-19T10:48:17.856Z,100399.59
2023-03-19T10:50:56.702Z,100397.75
2023-03-19T10:53:33.660Z,100400.31
2023-03-19T10:56:02.148Z,100393.13
2023-03-19T10:58:31.422Z,100388.63
2023-03-19T11:01:06.036Z,100404.53
2023-03-19T11:03:34.813Z,100397.28
2023-03-19T11:06:19.863Z,100393.59
2023-03-19T11:08:52.609Z,100399.66
2023-03-19T11:11:37.582Z,100396.81
2023-03-19T11:14:31.889Z,100395.72
2023-03-19T11:17:05.488Z,100400.00
2023-03-19T11:19:41.474Z,100398.97
2023-03-19T11:22:08.782Z,100407.78
2023-03-19T11:24:48.126Z,100405.81
2023-03-19T11:27:14.582Z,100405.66
2023-03-19T11:29:44.580Z,100409.03
2023-03-19T11:32:21.085Z,100407.09
2023-03-19T11:34:56.782Z,100408.72
2023-03-19T11:37:29.592Z,100397.88
2023-03-19T11:40:11.898Z,100399.47
2023-03-19T11:42:47.270Z,100401.16
2023-03-19T11:45:24.904Z,100400.28
2023-03-19T11:48:19.973Z,100401.03
2023-03-19T11:50:58.918Z,100398.31
2023-03-19T11:53:34.210Z,100392.00
2023-03-19T11:56:29.793Z,100391.94
2023-03-19T11:59:21.152Z,100382.81
2023-03-19T12:02:06.384Z,100387.06
2023-03-19T12:05:11.485Z,100390.47
2023-03-19T12:08:07.326Z,100388.31
2023-03-19T12:10:53.481Z,100381.03
2023-03-19T12:13:57.209Z,100391.41
2023-03-19T12:16:48.902Z,100399.03
2023-03-19T12:19:42.058Z,100385.28
2023-03-19T12:22:16.204Z,100388.59
2023-03-19T12:24:42.726Z,100389.53
2023-03-19T12:27:28.341Z,100389.59
2023-03-19T12:30:04.509Z,100384.09
2023-03-19T12:32:40.237Z,100381.41
2023-03-19T12:35:34.274Z,100382.75
2023-03-19T12:38:18.738Z,100374.75
2023-03-19T12:40:52.633Z,100374.56
2023-03-19T12:43:30.819Z,100370.81
2023-03-19T12:46:16.073Z,100375.84
2023-03-19T12:48:51.133Z,100372.81
2023-03-19T12:51:23.038Z,100366.25
2023-03-19T12:53:56.375Z,100372.28
2023-03-19T12:56:52.058Z,100376.50
2023-03-19T12:59:27.833Z,100370.97
2023-03-19T13:02:03.764Z,100375.13
2023-03-19T13:04:33.297Z,100376.03
2023-03-19T13:07:08.986Z,100374.56
2023-03-19T13:10:03.224Z,100372.28
2023-03-19T13:12:33.021Z,100368.03
2023-03-19T13:15:19.368Z,100367.28
2023-03-19T13:18:14.146Z,100372.09
2023-03-19T13:21:23.774Z,100375.38
2023-03-19T13:24:17.288Z,100373.19
2023-03-19T13:26:45.278Z,100371.81
2023-03-19T13:29:26.191Z,100367.59
2023-03-19T13:31:59.834Z,100370.34
2023-03-19T13:34:29.048Z,100375.81
2023-03-19T13:37:13.290Z,100377.91
2023-03-19T13:39:42.428Z,100377.94
2023-03-19T13:42:11.091Z,100381.53
2023-03-19T13:45:22.606Z,100374.47
2023-03-19T13:47:58.578Z,100375.38
2023-03-19T13:50:27.977Z,100369.91
2023-03-19T13:53:33.833Z,100369.94
2023-03-19T13:56:26.250Z,100368.41
2023-03-19T13:59:16.710Z,100373.09
2023-03-19T14:01:44.798Z,100370.44
2023-03-19T14:04:29.245Z,100372.13
2023-03-19T14:06:58.546Z,100373.09
2023-03-19T14:09:43.917Z,100368.78
2023-03-19T14:12:19.404Z,100374.22
2023-03-19T14:15:13.333Z,100369.88
2023-03-19T14:17:51.042Z,100377.91
2023-03-19T14:20:28.388Z,100374.47
2023-03-19T14:23:08.984Z,100375.59
2023-03-19T14:25:52.602Z,100370.50
2023-03-19T14:28:24.157Z,100367.84
2023-03-19T14:30:50.891Z,100367.03
2023-03-19T14:33:29.029Z,100362.47
2023-03-19T14:35:56.620Z,100369.50
2023-03-19T14:38:36.745Z,100356.94
2023-03-19T14:41:04.638Z,100362.25
2023-03-19T14:44:02.262Z,100363.06
2023-03-19T14:46:50.681Z,100362.94
2023-03-19T14:49:54.941Z,100369.00
2023-03-19T14:53:04.567Z,100364.41
2023-03-19T14:55:37.334Z,100365.09
2023-03-19T14:58:04.987Z,100358.75
2023-03-19T15:00:47.378Z,100363.91
2023-03-19T15:03:21.673Z,100366.41
2023-03-19T15:05:51.548Z,100367.22
2023-03-19T15:08:23.201Z,100358.22
2023-03-19T15:11:08.161Z,100368.84
2023-03-19T15:13:59.897Z,100361.69
2023-03-19T15:16:38.889Z,100365.31
2023-03-19T15:19:10.479Z,100373.28
2023-03-19T15:21:38.312Z,100373.25
2023-03-19T15:24:07.154Z,100374.06
2023-03-19T15:26:36.546Z,100366.88
2023-03-19T15:29:04.439Z,100367.69
2023-03-19T15:32:03.666Z,100360.47
2023-03-19T15:34:31.313Z,100365.75
2023-03-19T15:37:14.166Z,100364.81
2023-03-19T15:39:46.613Z,100358.44
2023-03-19T15:42:16.545Z,100367.38
2023-03-19T15:44:50.844Z,100366.47
2023-03-19T15:47:21.832Z,100372.81
2023-03-19T15:49:59.394Z,100365.75
2023-03-19T15:52:26.919Z,100372.91
2023-03-19T15:54:55.795Z,100373.00
2023-03-19T15:57:24.385Z,100373.06
2023-03-19T15:59:53.946Z,100379.44
2023-03-19T16:02:31.177Z,100369.75
2023-03-19T16:07:55.537Z,100378.03
2023-03-19T16:10:33.345Z,100381.78
2023-03-19T16:13:05.431Z,100388.16
2023-03-19T16:15:44.931Z,100382.06
2023-03-19T16:18:17.991Z,100386.63
2023-03-19T16:20:48.760Z,100394.69
2023-03-19T16:23:18.423Z,100391.25
2023-03-19T16:25:46.466Z,100390.47
2023-03-19T16:28:19.045Z,100394.13
2023-03-19T16:30:48.869Z,100396.00
2023-03-19T16:33:15.544Z,100395.25
2023-03-19T16:35:44.670Z,100403.41
2023-03-19T16:38:17.068Z,100403.50
2023-03-19T16:40:45.141Z,100403.44
2023-03-19T16:43:33.312Z,100417.94
2023-03-19T16:46:12.329Z,100417.19
2023-03-19T16:48:39.379Z,100422.69
2023-03-19T16:51:12.737Z,100427.25
2023-03-19T16:53:39.405Z,100423.78
2023-03-19T16:56:06.511Z,100417.72
2023-03-19T16:58:36.013Z,100422.31
2023-03-19T17:01:15.922Z,100424.22
2023-03-19T17:03:42.740Z,100419.00
2023-03-19T17:06:12.085Z,100423.56
2023-03-19T17:08:38.626Z,100424.63
2023-03-19T17:11:05.892Z,100424.75
2023-03-19T17:13:34.978Z,100424.81
2023-03-19T17:16:04.563Z,100431.13
2023-03-19T17:18:41.790Z,100432.97
2023-03-19T17:21:10.618Z,100443.69
2023-03-19T17:23:38.078Z,100443.78
2023-03-19T17:26:31.474Z,100441.19
2023-03-19T17:28:58.305Z,100449.25
2023-03-19T17:31:29.342Z,100453.69
2023-03-19T17:34:03.315Z,100459.06
2023-03-19T17:36:30.685Z,100458.22
2023-03-19T17:38:57.232Z,100461.81
2023-03-19T17:41:24.017Z,100461.00
2023-03-19T17:43:50.650Z,100464.59
2023-03-19T17:46:23.581Z,100465.50
2023-03-19T17:48:51.378Z,100469.94
2023-03-19T17:51:18.918Z,100463.75
2023-03-19T17:53:51.880Z,100471.72
2023-03-19T17:56:20.982Z,100475.28
2023-03-19T17:58:50.287Z,100484.97
2023-03-19T18:01:20.645Z,100478.78
2023-03-19T18:03:51.990Z,100485.88
2023-03-19T18:06:21.318Z,100492.06
2023-03-19T18:08:48.631Z,100489.38
2023-03-19T18:11:15.235Z,100489.38
2023-03-19T18:13:42.261Z,100504.47
2023-03-19T18:16:21.510Z,100505.34
2023-03-19T18:18:50.355Z,100514.25
2023-03-19T18:21:17.540Z,100515.16
2023-03-19T18:23:45.088Z,100518.72
2023-03-19T18:26:11.899Z,100521.41
2023-03-19T18:28:39.155Z,100523.22
2023-03-19T18:31:15.218Z,100535.66
2023-03-19T18:33:46.153Z,100522.34
2023-03-19T18:36:18.319Z,100533.00
2023-03-19T18:38:44.822Z,100536.53
2023-03-19T18:41:17.783Z,100533.03
2023-03-19T18:43:44.559Z,100536.59
2023-03-19T18:46:19.983Z,100548.13
2023-03-19T18:48:46.996Z,100547.25
2023-03-19T18:51:13.523Z,100549.91
2023-03-19T18:53:40.126Z,100543.69
2023-03-19T18:56:20.316Z,100552.56
2023-03-19T18:58:47.572Z,100550.78
2023-03-19T19:01:16.479Z,100549.91
2023-03-19T19:03:45.597Z,100546.34
2023-03-19T19:06:40.217Z,100549.88
2023-03-19T19:09:12.831Z,100550.78
2023-03-19T19:11:41.649Z,100545.44
2023-03-19T19:14:16.301Z,100549.03
2023-03-19T19:16:42.773Z,100549.00
2023-03-19T19:19:18.459Z,100554.31
2023-03-19T19:21:46.208Z,100558.72
2023-03-19T19:24:14.896Z,100551.66
2023-03-19T19:26:46.565Z,100557.81
2023-03-19T19:29:23.653Z,100555.16
2023-03-19T19:31:50.745Z,100557.81
2023-03-19T19:34:17.537Z,100562.16
2023-03-19T19:36:44.033Z,100567.47
2023-03-19T19:39:10.859Z,100570.09
2023-03-19T19:41:38.397Z,100577.16
2023-03-19T19:44:05.786Z,100569.19
2023-03-19T19:46:32.952Z,100574.50
2023-03-19T19:49:00.812Z,100570.09
2023-03-19T19:51:29.241Z,100575.41
2023-03-19T19:53:55.919Z,100584.28
2023-03-19T19:56:25.641Z,100585.16
2023-03-19T19:58:54.172Z,100578.97
2023-03-19T20:01:23.997Z,100588.72
2023-03-19T20:03:52.068Z,100588.72
2023-03-19T20:06:19.360Z,100595.78
2023-03-19T20:08:48.230Z,100594.03
2023-03-19T20:11:23.662Z,100594.00
2023-03-19T20:13:54.480Z,100601.09
2023-03-19T20:16:24.325Z,100600.19
2023-03-19T20:18:53.708Z,100598.44
2023-03-19T20:21:20.816Z,100599.31
2023-03-19T20:23:47.723Z,100606.38
2023-03-19T20:26:17.099Z,100609.91
2023-03-19T20:28:44.329Z,100614.34
2023-03-19T20:31:26.656Z,100612.56
2023-03-19T20:33:53.279Z,100609.91
2023-03-19T20:36:19.698Z,100617.00
2023-03-19T20:38:46.574Z,100610.78
2023-03-19T20:41:22.416Z,100614.34
2023-03-19T20:43:50.467Z,100617.00
2023-03-19T20:46:20.231Z,100614.28
2023-03-19T20:48:48.004Z,100619.59
2023-03-19T20:51:21.483Z,100616.06
2023-03-19T20:53:49.783Z,100618.69
2023-03-19T20:56:18.719Z,100617.81
2023-03-19T20:58:45.798Z,100619.56
2023-03-19T21:01:14.236Z,100618.66
2023-03-19T21:03:41.636Z,100619.56
2023-03-19T21:06:17.463Z,100628.38
2023-03-19T21:08:47.709Z,100631.94
2023-03-19T21:11:17.758Z,100627.50
2023-03-19T21:13:51.942Z,100624.84
2023-03-19T21:16:19.886Z,100620.41
2023-03-19T21:18:47.342Z,100626.63
2023-03-19T21:21:15.257Z,100627.47
2023-03-19T21:23:56.984Z,100625.72
2023-03-19T21:26:24.545Z,100626.63
2023-03-19T21:29:00.466Z,100635.44
2023-03-19T21:31:27.455Z,100636.31
2023-03-19T21:33:55.364Z,100630.13
2023-03-19T21:36:23.718Z,100630.13
2023-03-19T21:38:52.455Z,100637.19
2023-03-19T21:41:26.355Z,100633.63
2023-03-19T21:43:56.140Z,100627.41
2023-03-19T21:46:26.569Z,100634.53
2023-03-19T21:48:54.984Z,100630.97
2023-03-19T21:51:22.698Z,100619.47
2023-03-19T21:53:49.402Z,100630.06
2023-03-19T21:56:22.547Z,100623.91
2023-03-19T21:58:51.456Z,100623.91
2023-03-19T22:01:21.750Z,100635.38
2023-03-19T22:03:48.589Z,100638.03
2023-03-19T22:06:17.113Z,100635.38
2023-03-19T22:08:48.183Z,100642.47
2023-03-19T22:11:19.111Z,100641.59
2023-03-19T22:13:46.223Z,100639.78
2023-03-19T22:16:22.997Z,100639.78
2023-03-19T22:18:51.081Z,100643.34
2023-03-19T22:21:20.786Z,100648.63
2023-03-19T22:23:48.040Z,100643.34
2023-03-19T22:26:34.648Z,100644.19
2023-03-19T22:29:04.869Z,100637.13
2023-03-19T22:31:32.340Z,100635.31
2023-03-19T22:33:58.920Z,100637.06
2023-03-19T22:36:25.363Z,100640.59
2023-03-19T22:38:52.007Z,100637.91
2023-03-19T22:41:26.599Z,100638.81
2023-03-19T22:43:53.732Z,100630.84
2023-03-19T22:46:20.990Z,100631.69
2023-03-19T22:48:52.661Z,100619.34
2023-03-19T22:51:24.507Z,100621.09
2023-03-19T22:53:51.811Z,100627.25
2023-03-19T22:56:19.453Z,100628.13
2023-03-19T22:58:49.275Z,100622.84
2023-03-19T23:01:20.496Z,100621.94
2023-03-19T23:03:48.102Z,100621.94
2023-03-19T23:06:29.340Z,100623.66
2023-03-19T23:08:57.367Z,100633.38
2023-03-19T23:11:24.496Z,100627.19
2023-03-19T23:13:51.229Z,100622.78
2023-03-19T23:16:23.477Z,100629.84
2023-03-19T23:18:51.096Z,100621.88
2023-03-19T23:21:19.589Z,100620.13
2023-03-19T23:23:46.502Z,100622.75
2023-03-19T23:26:26.641Z,100624.53
2023-03-19T23:28:54.166Z,100625.38
2023-03-19T23:31:20.702Z,100623.59
2023-03-19T23:33:47.191Z,100621.81
2023-03-19T23:36:13.783Z,100628.00
2023-03-19T23:38:40.932Z,100624.44
2023-03-19T23:41:07.666Z,100629.75
2023-03-19T23:43:34.572Z,100629.69
2023-03-19T23:46:01.090Z,100629.69
2023-03-19T23:48:36.947Z,100628.75
2023-03-19T23:51:03.774Z,100632.25
2023-03-19T23:53:30.832Z,100634.81
2023-03-19T23:56:00.531Z,100647.16
2023-03-19T23:58:42.916Z,100635.63
